Time;durP1;ratioP1;P1;durP2;ratioP2;P2;SDS_P1;SDS_P2;PMS_P1;PMS_P2;Temp;Humidity;BMP_temperature;BMP_pressure;BME280_temperature;BME280_humidity;BME280_pressure;Samples;Min_cycle;Max_cycle;Signal;HPM_P1;HPM_P2
2022/11/19 00:01:08;;;;;;;29.42;17.52;;;4.50;99.90;;;;;;5043712;28;20064;-82
2022/11/19 00:03:35;;;;;;;24.70;17.00;;;4.50;99.90;;;;;;5020124;28;20044;-84
2022/11/19 00:06:05;;;;;;;24.83;17.27;;;4.50;99.90;;;;;;5049492;28;20044;-83
2022/11/19 00:08:31;;;;;;;25.42;18.17;;;4.50;99.90;;;;;;5014702;28;20036;-79
2022/11/19 00:11:11;;;;;;;29.70;21.35;;;4.50;99.90;;;;;;5028229;28;20033;-87
2022/11/19 00:13:38;;;;;;;27.27;18.00;;;4.40;99.90;;;;;;5032084;28;20037;-85
2022/11/19 00:16:07;;;;;;;30.02;21.48;;;4.40;99.90;;;;;;5051586;28;20040;-82
2022/11/19 00:18:34;;;;;;;31.42;21.58;;;4.40;99.90;;;;;;5046569;28;20029;-81
2022/11/19 00:21:07;;;;;;;30.60;21.23;;;4.40;99.90;;;;;;5025485;28;20049;-84
2022/11/19 00:23:34;;;;;;;26.75;18.92;;;4.30;99.90;;;;;;5020363;28;20041;-81
2022/11/19 00:26:09;;;;;;;21.42;14.65;;;4.30;99.90;;;;;;5035900;28;20473;-83
2022/11/19 00:28:36;;;;;;;23.33;17.17;;;4.30;99.90;;;;;;5012783;28;20036;-81
2022/11/19 00:31:08;;;;;;;30.60;18.75;;;4.30;99.90;;;;;;5044300;28;20029;-84
2022/11/19 00:33:36;;;;;;;28.33;19.33;;;4.30;99.90;;;;;;5050074;28;20033;-84
2022/11/19 00:36:04;;;;;;;28.20;20.98;;;4.30;99.90;;;;;;5014343;28;20036;-84
2022/11/19 00:38:31;;;;;;;25.67;19.17;;;4.30;99.90;;;;;;5047930;28;20045;-82
2022/11/19 00:40:58;;;;;;;28.58;21.27;;;4.30;99.90;;;;;;5041363;28;20520;-80
2022/11/19 00:46:10;;;;;;;27.90;18.92;;;4.20;99.90;;;;;;5047150;28;20033;-82
2022/11/19 00:48:38;;;;;;;30.23;20.17;;;4.10;99.90;;;;;;5047354;28;20044;-76
2022/11/19 00:51:05;;;;;;;28.92;20.17;;;4.10;99.90;;;;;;5026169;28;20064;-84
2022/11/19 00:53:32;;;;;;;23.65;17.95;;;4.10;99.90;;;;;;5013902;28;20056;-83
2022/11/19 00:56:08;;;;;;;24.05;18.15;;;4.10;99.90;;;;;;5030442;28;20037;-78
2022/11/19 00:58:34;;;;;;;22.85;17.45;;;4.00;99.90;;;;;;5046818;28;20032;-82
2022/11/19 01:01:01;;;;;;;32.13;20.17;;;4.00;99.90;;;;;;5042988;28;20041;-79
2022/11/19 01:03:27;;;;;;;25.77;20.55;;;4.10;99.90;;;;;;5046252;28;20281;-79
2022/11/19 01:05:54;;;;;;;28.67;20.75;;;4.10;99.90;;;;;;5046840;28;20037;-83
2022/11/19 01:08:20;;;;;;;22.70;17.17;;;4.00;99.90;;;;;;5047771;28;20079;-86
2022/11/19 01:10:46;;;;;;;22.23;17.30;;;4.00;99.90;;;;;;5009807;28;20040;-82
2022/11/19 01:16:00;;;;;;;26.60;19.65;;;4.00;99.90;;;;;;5053188;28;20040;-77
2022/11/19 01:18:27;;;;;;;27.17;20.63;;;4.00;99.90;;;;;;5052676;28;20036;-79
2022/11/19 01:20:53;;;;;;;27.83;20.00;;;4.00;99.90;;;;;;5045353;28;20424;-85
2022/11/19 01:23:20;;;;;;;26.45;19.40;;;4.00;99.90;;;;;;5051305;28;20476;-82
2022/11/19 01:25:46;;;;;;;32.35;22.27;;;4.00;99.90;;;;;;5051446;28;20040;-80
2022/11/19 01:28:13;;;;;;;26.83;20.50;;;4.00;99.90;;;;;;5051283;28;20025;-85
2022/11/19 01:30:41;;;;;;;26.77;20.30;;;3.90;99.90;;;;;;5045402;28;20037;-79
2022/11/19 01:33:08;;;;;;;26.42;20.52;;;3.90;99.90;;;;;;5034568;28;20396;-80
2022/11/19 01:35:35;;;;;;;29.60;22.80;;;3.90;99.90;;;;;;5032265;28;20404;-79
2022/11/19 01:38:02;;;;;;;27.02;20.60;;;3.90;99.90;;;;;;5052162;28;20521;-77
2022/11/19 01:40:29;;;;;;;27.00;20.65;;;3.80;99.90;;;;;;5041982;28;20051;-85
2022/11/19 01:42:55;;;;;;;28.27;21.13;;;3.80;99.90;;;;;;5034536;28;20045;-83
2022/11/19 01:45:36;;;;;;;26.30;19.55;;;3.80;99.90;;;;;;5051782;28;20510;-82
2022/11/19 01:48:13;;;;;;;30.60;22.75;;;3.80;99.90;;;;;;5033477;28;20496;-85
2022/11/19 01:50:53;;;;;;;27.63;20.25;;;3.70;99.90;;;;;;5009150;28;20067;-82
2022/11/19 01:53:24;;;;;;;31.10;22.08;;;3.70;99.90;;;;;;5050464;28;20029;-82
2022/11/19 01:55:51;;;;;;;32.88;23.75;;;3.70;99.90;;;;;;5032702;28;20037;-79
2022/11/19 01:58:22;;;;;;;37.08;25.95;;;3.70;99.90;;;;;;5020297;28;20464;-86
2022/11/19 02:00:49;;;;;;;33.63;24.52;;;3.70;99.90;;;;;;5044933;28;20064;-84
2022/11/19 02:03:16;;;;;;;32.63;24.42;;;3.60;99.90;;;;;;5049828;28;20047;-80
2022/11/19 02:05:44;;;;;;;31.10;23.30;;;3.60;99.90;;;;;;5033387;28;20037;-81
2022/11/19 02:08:49;;;;;;;33.40;25.67;;;3.60;99.90;;;;;;5033167;28;20033;-84
2022/11/19 02:11:53;;;;;;;30.52;22.30;;;3.60;99.90;;;;;;5012494;28;20049;-80
2022/11/19 02:14:28;;;;;;;34.60;26.05;;;3.50;99.90;;;;;;5036417;28;20036;-79
2022/11/19 02:17:12;;;;;;;33.63;24.45;;;3.50;99.90;;;;;;5032809;28;20033;-81
2022/11/19 02:20:26;;;;;;;33.88;25.27;;;3.50;99.90;;;;;;5024755;28;20060;-85
2022/11/19 02:23:26;;;;;;;34.75;25.98;;;3.50;99.90;;;;;;5048243;28;20056;-82
2022/11/19 02:26:04;;;;;;;28.13;20.77;;;3.50;99.90;;;;;;5049940;28;20415;-85
2022/11/19 02:29:01;;;;;;;31.23;23.60;;;3.50;99.90;;;;;;5028473;28;20041;-78
2022/11/19 02:31:37;;;;;;;33.30;25.10;;;3.50;99.90;;;;;;5050494;28;20033;-79
2022/11/19 02:34:07;;;;;;;32.08;23.75;;;3.50;99.90;;;;;;5036547;28;20056;-85
2022/11/19 02:36:44;;;;;;;38.85;29.15;;;3.50;99.90;;;;;;5055200;28;20040;-83
2022/11/19 02:39:30;;;;;;;38.05;29.42;;;3.50;99.90;;;;;;5046314;28;20421;-78
2022/11/19 02:42:18;;;;;;;38.00;27.70;;;3.40;99.90;;;;;;5035430;28;20048;-81
2022/11/19 02:45:01;;;;;;;34.88;26.38;;;3.40;99.90;;;;;;5050908;28;20037;-85
2022/11/19 02:47:42;;;;;;;39.65;29.15;;;3.40;99.90;;;;;;5050147;28;20039;-84
2022/11/19 02:50:17;;;;;;;36.83;27.38;;;3.30;99.90;;;;;;5043591;28;20036;-83
2022/11/19 02:52:45;;;;;;;40.03;28.50;;;3.30;99.90;;;;;;5049836;28;20055;-80
2022/11/19 02:55:17;;;;;;;35.10;27.90;;;3.30;99.90;;;;;;5033672;28;20040;-82
2022/11/19 02:58:05;;;;;;;37.25;28.35;;;3.30;99.90;;;;;;5050462;28;20059;-80
2022/11/19 03:06:15;;;;;;;38.15;27.08;;;3.10;99.90;;;;;;5048725;28;20041;-80
2022/11/19 03:08:43;;;;;;;39.33;27.80;;;3.00;99.90;;;;;;5031004;28;20476;-75
2022/11/19 03:11:20;;;;;;;38.85;28.77;;;3.00;99.90;;;;;;5032062;28;20041;-79
2022/11/19 03:16:53;;;;;;;43.43;31.77;;;2.90;99.90;;;;;;5032741;28;20419;-85
2022/11/19 03:19:41;;;;;;;44.43;31.33;;;2.90;99.90;;;;;;5029592;28;20041;-74
2022/11/19 03:22:34;;;;;;;34.58;26.35;;;2.80;99.90;;;;;;5047272;28;20036;-82
2022/11/19 03:25:27;;;;;;;41.22;29.50;;;2.80;99.90;;;;;;5049333;28;20045;-82
2022/11/19 03:28:00;;;;;;;43.05;29.92;;;2.90;99.90;;;;;;5048833;28;20037;-85
2022/11/19 03:30:29;;;;;;;34.97;25.87;;;2.90;99.90;;;;;;5042041;28;20037;-81
2022/11/19 03:33:05;;;;;;;37.20;27.70;;;2.90;99.90;;;;;;5051210;28;20028;-79
2022/11/19 03:35:40;;;;;;;34.35;25.02;;;2.90;99.90;;;;;;5032574;28;20033;-83
2022/11/19 03:38:11;;;;;;;35.65;26.70;;;2.90;99.90;;;;;;5048888;28;20420;-77
2022/11/19 03:40:40;;;;;;;36.33;28.10;;;2.90;99.90;;;;;;5026670;28;20037;-85
2022/11/19 03:43:10;;;;;;;40.00;30.42;;;2.90;99.90;;;;;;5018205;28;20059;-81
2022/11/19 03:45:43;;;;;;;38.80;29.57;;;2.90;99.90;;;;;;5050098;28;20029;-81
2022/11/19 03:48:13;;;;;;;40.08;29.90;;;2.90;99.90;;;;;;5034710;28;20036;-84
2022/11/19 03:51:04;;;;;;;40.90;28.90;;;2.90;99.90;;;;;;5043434;28;20033;-83
2022/11/19 03:53:31;;;;;;;38.83;27.98;;;2.90;99.90;;;;;;5051308;28;20059;-86
2022/11/19 03:56:01;;;;;;;41.90;31.65;;;2.90;99.90;;;;;;5050790;28;20033;-85
2022/11/19 03:58:28;;;;;;;40.78;28.40;;;2.80;99.90;;;;;;5048570;28;20032;-78
2022/11/19 04:00:55;;;;;;;40.67;29.83;;;2.80;99.90;;;;;;5011525;28;20056;-85
2022/11/19 04:03:21;;;;;;;36.85;26.52;;;2.80;99.90;;;;;;5031456;28;20523;-84
2022/11/19 04:05:48;;;;;;;43.80;31.38;;;2.80;99.90;;;;;;5049408;28;20037;-86
2022/11/19 04:08:14;;;;;;;36.93;27.40;;;2.80;99.90;;;;;;5050488;28;20037;-84
2022/11/19 04:10:40;;;;;;;42.03;32.00;;;2.70;99.90;;;;;;5042369;28;20029;-84
2022/11/19 04:13:07;;;;;;;40.10;29.17;;;2.80;99.90;;;;;;5014545;28;20052;-86
2022/11/19 04:15:33;;;;;;;36.50;27.23;;;2.70;99.90;;;;;;5031360;28;20037;-82
2022/11/19 04:17:59;;;;;;;39.45;27.90;;;2.70;99.90;;;;;;5014513;28;20048;-78
2022/11/19 04:20:25;;;;;;;41.80;29.23;;;2.70;99.90;;;;;;5043274;28;20037;-82
2022/11/19 04:22:52;;;;;;;40.27;29.87;;;2.70;99.90;;;;;;5048831;28;20475;-84
2022/11/19 04:25:18;;;;;;;37.40;27.43;;;2.70;99.90;;;;;;5014970;28;20502;-82
2022/11/19 04:27:45;;;;;;;37.20;27.45;;;2.70;99.90;;;;;;5032360;28;20033;-86
2022/11/19 04:30:12;;;;;;;46.80;32.95;;;2.70;99.90;;;;;;5042820;28;20037;-87
2022/11/19 04:32:39;;;;;;;40.70;30.77;;;2.70;99.90;;;;;;5013824;28;20444;-77
2022/11/19 04:35:06;;;;;;;45.53;32.78;;;2.70;99.90;;;;;;5048113;28;20037;-88
2022/11/19 04:37:32;;;;;;;45.00;31.25;;;2.70;99.90;;;;;;5051331;28;20028;-86
2022/11/19 04:39:59;;;;;;;38.35;28.75;;;2.70;99.90;;;;;;5043461;28;20083;-88
2022/11/19 04:42:25;;;;;;;45.05;32.08;;;2.70;99.90;;;;;;5031735;28;20048;-81
2022/11/19 04:44:51;;;;;;;43.25;29.98;;;2.70;99.90;;;;;;5016776;28;20060;-85
2022/11/19 04:47:18;;;;;;;38.17;27.52;;;2.70;99.90;;;;;;5049634;28;20037;-87
2022/11/19 04:49:44;;;;;;;41.70;29.55;;;2.70;99.90;;;;;;5027303;28;20062;-81
2022/11/19 04:52:11;;;;;;;47.40;31.70;;;2.70;99.90;;;;;;5032698;28;20026;-87
2022/11/19 04:54:38;;;;;;;40.77;29.83;;;2.60;99.90;;;;;;5034905;28;20037;-87
2022/11/19 04:57:04;;;;;;;42.33;30.43;;;2.50;99.90;;;;;;5033549;28;20040;-84
2022/11/19 04:59:30;;;;;;;42.03;28.83;;;2.60;99.90;;;;;;5030032;28;20037;-80
2022/11/19 05:01:56;;;;;;;47.30;33.73;;;2.60;99.90;;;;;;5053276;28;20407;-85
2022/11/19 05:04:23;;;;;;;43.00;30.53;;;2.50;99.90;;;;;;5052943;28;20029;-84
2022/11/19 05:06:49;;;;;;;43.03;30.80;;;2.50;99.90;;;;;;5052601;28;20042;-83
2022/11/19 05:09:15;;;;;;;46.60;34.43;;;2.50;99.90;;;;;;5047571;28;20075;-83
2022/11/19 05:11:42;;;;;;;42.37;29.53;;;2.50;99.90;;;;;;5051639;28;20037;-84
2022/11/19 05:14:08;;;;;;;40.07;28.87;;;2.40;99.90;;;;;;5022516;28;20284;-81
2022/11/19 05:16:34;;;;;;;48.73;34.37;;;2.40;99.90;;;;;;5055622;28;20037;-85
2022/11/19 05:19:00;;;;;;;41.10;30.23;;;2.40;99.90;;;;;;5053212;28;21359;-84
2022/11/19 05:21:27;;;;;;;36.33;26.23;;;2.40;99.90;;;;;;5051540;28;20043;-86
2022/11/19 05:23:53;;;;;;;40.97;29.43;;;2.40;99.90;;;;;;5034871;28;20037;-83
2022/11/19 05:26:19;;;;;;;44.97;31.20;;;2.40;99.90;;;;;;5018335;28;20052;-83
2022/11/19 05:28:46;;;;;;;44.67;31.80;;;2.40;99.90;;;;;;5050317;28;20484;-76
2022/11/19 05:31:12;;;;;;;42.97;29.90;;;2.40;99.90;;;;;;5049938;28;20028;-80
2022/11/19 05:33:38;;;;;;;40.60;28.23;;;2.30;99.90;;;;;;5033980;28;20037;-86
2022/11/19 05:36:05;;;;;;;41.77;29.20;;;2.20;99.90;;;;;;5034301;28;20040;-84
2022/11/19 05:38:31;;;;;;;41.63;28.50;;;2.20;99.90;;;;;;5020238;28;20044;-85
2022/11/19 05:40:58;;;;;;;39.40;29.17;;;2.20;99.90;;;;;;5028261;28;20044;-80
2022/11/19 05:43:24;;;;;;;40.43;28.37;;;2.20;99.90;;;;;;5036412;28;20043;-84
2022/11/19 05:45:50;;;;;;;37.97;26.73;;;2.10;99.90;;;;;;5034699;28;20036;-84
2022/11/19 05:48:17;;;;;;;36.60;25.57;;;2.10;99.90;;;;;;5051001;28;20037;-83
2022/11/19 05:50:43;;;;;;;38.23;26.53;;;2.10;99.90;;;;;;5011392;28;20037;-80
2022/11/19 05:53:09;;;;;;;41.63;29.63;;;2.10;99.90;;;;;;5052719;28;20037;-84
2022/11/19 05:55:36;;;;;;;40.53;29.07;;;2.10;99.90;;;;;;5032367;28;20029;-84
2022/11/19 05:58:02;;;;;;;44.00;28.63;;;2.10;99.90;;;;;;5052690;28;20045;-88
2022/11/19 06:00:28;;;;;;;40.92;28.10;;;2.10;99.90;;;;;;5044639;28;20507;-82
2022/11/19 06:02:55;;;;;;;43.30;30.38;;;2.10;99.90;;;;;;5052366;28;20448;-86
2022/11/19 06:05:21;;;;;;;40.83;28.83;;;2.00;99.90;;;;;;5049909;28;20032;-86
2022/11/19 06:07:47;;;;;;;40.47;28.30;;;2.00;99.90;;;;;;5053424;28;20491;-83
2022/11/19 06:10:14;;;;;;;40.13;28.80;;;1.90;99.90;;;;;;5013456;28;20028;-82
2022/11/19 06:12:42;;;;;;;40.37;28.47;;;1.90;99.90;;;;;;5034106;28;20040;-80
2022/11/19 06:15:09;;;;;;;39.37;27.67;;;1.90;99.90;;;;;;5035456;28;20468;-87
2022/11/19 06:17:35;;;;;;;38.20;27.40;;;1.80;99.90;;;;;;5019169;28;20051;-81
2022/11/19 06:20:01;;;;;;;40.27;27.90;;;1.80;99.90;;;;;;5044122;28;20055;-84
2022/11/19 06:22:27;;;;;;;37.20;26.60;;;1.80;99.90;;;;;;5049907;28;20696;-81
2022/11/19 06:24:54;;;;;;;41.47;28.50;;;1.80;99.90;;;;;;5034913;28;20392;-79
2022/11/19 06:27:20;;;;;;;38.03;26.40;;;1.80;99.90;;;;;;5048709;28;20296;-79
2022/11/19 06:29:46;;;;;;;43.03;30.07;;;1.80;99.90;;;;;;5011267;28;20052;-84
2022/11/19 06:32:13;;;;;;;38.43;27.10;;;1.80;99.90;;;;;;5048460;28;20037;-85
2022/11/19 06:34:39;;;;;;;38.50;26.97;;;1.80;99.90;;;;;;5032260;28;20029;-84
2022/11/19 06:37:05;;;;;;;39.47;27.90;;;1.80;99.90;;;;;;5036967;28;20490;-78
2022/11/19 06:39:31;;;;;;;34.20;24.50;;;1.80;99.90;;;;;;5027077;28;20041;-82
2022/11/19 06:42:34;;;;;;;32.40;21.87;;;1.80;99.90;;;;;;5049401;28;20048;-86
2022/11/19 06:44:44;;;;;;;40.77;29.03;;;1.80;99.90;;;;;;5050666;28;20056;-82
2022/11/19 06:47:10;;;;;;;42.80;29.73;;;1.90;99.90;;;;;;5014495;28;20033;-87
2022/11/19 06:49:36;;;;;;;47.03;29.87;;;1.90;99.90;;;;;;5042261;28;20037;-83
2022/11/19 06:52:03;;;;;;;38.40;26.30;;;1.80;99.90;;;;;;5015676;28;20036;-83
2022/11/19 06:54:29;;;;;;;37.50;26.40;;;1.80;99.90;;;;;;5016021;28;20051;-78
2022/11/19 06:56:55;;;;;;;36.97;24.93;;;1.70;99.90;;;;;;5049141;28;20396;-82
2022/11/19 06:59:22;;;;;;;42.47;28.60;;;1.70;99.90;;;;;;5026501;28;20404;-78
2022/11/19 07:01:48;;;;;;;40.83;27.77;;;1.70;99.90;;;;;;5047297;28;20412;-81
2022/11/19 07:04:15;;;;;;;38.87;26.93;;;1.70;99.90;;;;;;5035288;28;20036;-81
2022/11/19 07:06:42;;;;;;;42.23;27.50;;;1.70;99.90;;;;;;5031009;28;20049;-87
2022/11/19 07:09:08;;;;;;;37.77;25.60;;;1.60;99.90;;;;;;5027642;28;20467;-79
2022/11/19 07:11:34;;;;;;;42.30;28.90;;;1.70;99.90;;;;;;5045653;28;20033;-85
2022/11/19 07:14:02;;;;;;;39.83;28.67;;;1.60;99.90;;;;;;5045309;28;20026;-82
2022/11/19 07:16:34;;;;;;;42.80;28.23;;;1.60;99.90;;;;;;5042406;28;20040;-85
2022/11/19 07:19:02;;;;;;;37.43;25.50;;;1.60;99.90;;;;;;5038658;28;20396;-82
2022/11/19 07:21:29;;;;;;;38.10;25.73;;;1.60;99.90;;;;;;5025747;28;20546;-78
2022/11/19 07:23:56;;;;;;;46.03;31.33;;;1.50;99.90;;;;;;5014125;28;20033;-79
2022/11/19 07:26:23;;;;;;;43.17;28.80;;;1.50;99.90;;;;;;5030939;28;20377;-81
2022/11/19 07:28:50;;;;;;;43.80;30.30;;;1.50;99.90;;;;;;5025070;28;20044;-80
2022/11/19 07:31:16;;;;;;;41.37;27.77;;;1.50;99.90;;;;;;5043846;28;20029;-81
2022/11/19 07:33:43;;;;;;;41.80;28.50;;;1.50;99.90;;;;;;5044406;28;20492;-84
2022/11/19 07:36:11;;;;;;;42.53;25.60;;;1.50;99.90;;;;;;5029814;28;20041;-86
2022/11/19 07:38:37;;;;;;;40.50;27.50;;;1.50;99.90;;;;;;5028676;28;20033;-79
2022/11/19 07:43:50;;;;;;;42.93;27.20;;;1.50;99.90;;;;;;5045032;28;20527;-81
2022/11/19 07:46:16;;;;;;;42.43;27.47;;;1.50;99.90;;;;;;5046016;28;20035;-81
2022/11/19 07:48:42;;;;;;;40.43;27.90;;;1.50;99.90;;;;;;5027482;28;20040;-82
2022/11/19 07:51:09;;;;;;;40.40;28.57;;;1.40;99.90;;;;;;5035019;28;20045;-82
2022/11/19 07:53:35;;;;;;;41.37;26.30;;;1.40;99.90;;;;;;5016389;28;20128;-82
2022/11/19 07:56:02;;;;;;;37.30;24.53;;;1.50;99.90;;;;;;5038266;28;20041;-81
2022/11/19 07:58:28;;;;;;;35.80;24.80;;;1.40;99.90;;;;;;5029450;28;20051;-80
2022/11/19 08:00:54;;;;;;;35.80;24.10;;;1.40;99.90;;;;;;5038850;28;20040;-81
2022/11/19 08:03:21;;;;;;;35.97;24.30;;;1.40;99.90;;;;;;5027859;28;20033;-82
2022/11/19 08:05:47;;;;;;;36.33;24.33;;;1.40;99.90;;;;;;5030990;28;20033;-79
2022/11/19 08:08:13;;;;;;;34.17;23.70;;;1.30;99.90;;;;;;5028741;28;20041;-81
2022/11/19 08:10:40;;;;;;;30.67;21.33;;;1.30;99.90;;;;;;5040306;28;20486;-82
2022/11/19 08:13:06;;;;;;;35.87;25.57;;;1.20;99.90;;;;;;5026074;28;20391;-79
2022/11/19 08:15:34;;;;;;;37.60;25.63;;;1.20;99.90;;;;;;5024396;28;20040;-80
2022/11/19 08:18:12;;;;;;;34.20;23.87;;;1.20;99.90;;;;;;5027764;28;20037;-81
2022/11/19 08:20:39;;;;;;;42.23;27.00;;;1.10;99.90;;;;;;5004358;28;20044;-80
2022/11/19 08:23:06;;;;;;;32.80;23.50;;;1.10;99.90;;;;;;5025083;28;20055;-79
2022/11/19 08:25:33;;;;;;;33.60;23.20;;;1.00;99.90;;;;;;5044357;28;20037;-81
2022/11/19 08:28:00;;;;;;;33.97;22.80;;;1.00;99.90;;;;;;5042986;28;20040;-83
2022/11/19 08:30:27;;;;;;;29.53;19.90;;;0.90;99.90;;;;;;5035757;28;20037;-78
2022/11/19 08:32:53;;;;;;;33.13;22.50;;;0.90;99.90;;;;;;5026480;28;20040;-78
2022/11/19 08:35:20;;;;;;;33.67;22.20;;;0.90;99.90;;;;;;5043937;28;20041;-81
2022/11/19 08:37:47;;;;;;;34.97;23.83;;;0.90;99.90;;;;;;5042446;28;20385;-78
2022/11/19 08:40:14;;;;;;;33.20;21.23;;;0.90;99.90;;;;;;5035469;28;20298;-81
2022/11/19 08:42:58;;;;;;;32.13;21.73;;;0.90;99.90;;;;;;5027032;28;20037;-80
2022/11/19 08:45:34;;;;;;;31.80;20.40;;;0.80;99.90;;;;;;5044743;28;20040;-81
2022/11/19 08:48:02;;;;;;;25.13;17.93;;;0.80;99.90;;;;;;5042843;28;20037;-83
2022/11/19 08:50:30;;;;;;;30.47;19.63;;;0.80;99.90;;;;;;5018929;28;20515;-82
2022/11/19 08:53:04;;;;;;;27.77;18.80;;;0.70;99.90;;;;;;5000047;28;20045;-80
2022/11/19 08:55:31;;;;;;;32.33;22.23;;;0.70;99.90;;;;;;5037042;28;20041;-81
2022/11/19 08:58:02;;;;;;;32.60;21.50;;;0.70;99.90;;;;;;5021614;28;20436;-82
2022/11/19 09:00:30;;;;;;;33.37;21.60;;;0.60;99.90;;;;;;5016571;28;20049;-83
2022/11/19 09:02:56;;;;;;;34.80;23.23;;;0.60;99.90;;;;;;5054039;28;20412;-83
2022/11/19 09:05:23;;;;;;;30.40;20.80;;;0.50;99.90;;;;;;5042704;28;20032;-80
2022/11/19 09:07:49;;;;;;;30.27;21.27;;;0.60;99.90;;;;;;5026597;28;20033;-79
2022/11/19 09:10:17;;;;;;;27.13;19.83;;;0.60;99.90;;;;;;5037054;28;20040;-83
2022/11/19 09:12:43;;;;;;;28.30;19.57;;;0.60;99.90;;;;;;5039559;28;20045;-84
2022/11/19 09:15:10;;;;;;;25.80;17.70;;;0.70;99.90;;;;;;5043732;28;20052;-82
2022/11/19 09:17:36;;;;;;;27.00;19.10;;;0.70;99.90;;;;;;5045116;28;20040;-79
2022/11/19 09:20:03;;;;;;;30.10;20.47;;;0.80;99.90;;;;;;5021388;28;20025;-77
2022/11/19 09:22:30;;;;;;;26.23;19.47;;;0.80;99.90;;;;;;5046121;28;21006;-83
2022/11/19 09:24:57;;;;;;;29.10;19.70;;;0.90;99.90;;;;;;5044750;28;20037;-83
2022/11/19 09:27:23;;;;;;;26.23;19.03;;;0.90;99.90;;;;;;5043767;28;20041;-84
2022/11/19 09:29:49;;;;;;;29.43;19.83;;;0.90;99.90;;;;;;5037547;28;20041;-81
2022/11/19 09:32:16;;;;;;;31.17;19.43;;;1.00;99.90;;;;;;5027149;28;20045;-83
2022/11/19 09:34:42;;;;;;;30.50;22.50;;;1.00;99.90;;;;;;5027817;28;20040;-80
2022/11/19 09:37:09;;;;;;;29.47;20.23;;;1.10;99.90;;;;;;5048556;28;20059;-77
2022/11/19 09:39:35;;;;;;;39.27;25.63;;;1.20;99.90;;;;;;5060395;28;20041;-79
2022/11/19 09:42:30;;;;;;;24.23;18.30;;;1.30;99.90;;;;;;5032605;28;20542;-80
2022/11/19 09:44:59;;;;;;;21.83;15.63;;;1.50;99.90;;;;;;5019235;28;20367;-81
2022/11/19 09:47:44;;;;;;;24.93;16.10;;;1.60;99.90;;;;;;5048090;28;20037;-86
2022/11/19 09:50:17;;;;;;;21.30;14.47;;;1.80;99.90;;;;;;5043087;28;20041;-76
2022/11/19 09:52:57;;;;;;;18.93;14.70;;;2.00;99.90;;;;;;5015922;28;20491;-81
2022/11/19 09:55:33;;;;;;;21.13;16.20;;;2.30;99.90;;;;;;5031418;28;20037;-82
2022/11/19 09:58:04;;;;;;;19.95;14.77;;;2.60;99.90;;;;;;5044915;28;20029;-78
2022/11/19 10:00:31;;;;;;;20.70;15.18;;;2.80;99.90;;;;;;5015869;28;20983;-82
2022/11/19 10:03:00;;;;;;;20.48;13.90;;;2.90;99.90;;;;;;5013126;28;20411;-82
2022/11/19 10:05:56;;;;;;;18.33;13.63;;;3.20;99.90;;;;;;5039978;28;20040;-80
2022/11/19 10:08:34;;;;;;;18.45;13.88;;;3.50;99.90;;;;;;5040743;28;20253;-82
2022/11/19 10:11:18;;;;;;;18.75;13.30;;;3.70;99.90;;;;;;5006398;28;20408;-81
2022/11/19 10:13:50;;;;;;;20.40;15.35;;;3.90;99.90;;;;;;5024837;28;20511;-82
2022/11/19 10:16:23;;;;;;;16.60;13.75;;;4.10;99.90;;;;;;5041060;28;20037;-80
2022/11/19 10:18:49;;;;;;;16.38;12.88;;;4.10;99.90;;;;;;5026777;28;20052;-77
2022/11/19 10:21:44;;;;;;;18.92;13.50;;;4.10;99.90;;;;;;5008187;28;20657;-82
2022/11/19 10:24:17;;;;;;;17.83;13.95;;;4.20;99.90;;;;;;5026627;28;20037;-83
2022/11/19 10:26:56;;;;;;;16.15;13.38;;;4.20;99.90;;;;;;5024969;28;20064;-81
2022/11/19 10:29:26;;;;;;;15.43;12.48;;;4.20;99.90;;;;;;5022625;28;20044;-83
2022/11/19 10:32:08;;;;;;;14.23;12.43;;;4.10;99.90;;;;;;5040232;28;20040;-79
2022/11/19 10:34:36;;;;;;;14.45;11.35;;;3.90;99.90;;;;;;5041045;28;20041;-82
2022/11/19 10:37:09;;;;;;;17.05;12.75;;;3.60;99.90;;;;;;5008070;28;20040;-82
2022/11/19 10:39:42;;;;;;;18.70;14.05;;;3.30;99.90;;;;;;5021215;28;20045;-80
2022/11/19 10:42:22;;;;;;;14.77;12.35;;;3.00;99.90;;;;;;5012798;28;20037;-78
2022/11/19 10:44:54;;;;;;;15.07;12.20;;;2.80;99.90;;;;;;5041762;28;20025;-83
2022/11/19 10:47:46;;;;;;;19.83;15.32;;;2.60;99.90;;;;;;5035634;28;20033;-82
2022/11/19 10:50:18;;;;;;;16.10;12.50;;;2.50;99.90;;;;;;5023010;28;20411;-78
2022/11/19 10:52:51;;;;;;;19.98;14.98;;;2.40;99.90;;;;;;5027926;28;20041;-81
2022/11/19 10:55:22;;;;;;;;;;;2.30;99.90;;;;;;5040284;28;20033;-83
2022/11/19 10:57:54;;;;;;;15.47;12.03;;;2.30;99.90;;;;;;5037789;28;20323;-83
2022/11/19 11:00:21;;;;;;;;;;;2.20;99.90;;;;;;5019712;28;20420;-81
2022/11/19 11:02:57;;;;;;;17.75;13.98;;;2.20;99.90;;;;;;5038979;28;19923;-83
2022/11/19 11:05:23;;;;;;;17.35;12.55;;;2.20;99.90;;;;;;5039123;28;20024;-78
2022/11/19 11:07:52;;;;;;;19.10;13.97;;;2.20;99.90;;;;;;5015097;28;20041;-79
2022/11/19 11:10:44;;;;;;;17.92;13.57;;;2.20;99.90;;;;;;5024265;28;20511;-79
2022/11/19 11:16:37;;;;;;;14.60;11.67;;;2.30;99.90;;;;;;5042016;28;20044;-81
2022/11/19 11:19:12;;;;;;;14.77;11.57;;;2.30;99.90;;;;;;5039696;28;20032;-82
2022/11/19 11:21:41;;;;;;;15.67;11.83;;;2.30;99.90;;;;;;5022103;28;20041;-82
2022/11/19 11:24:11;;;;;;;14.77;11.52;;;2.30;99.90;;;;;;5026313;28;20063;-80
2022/11/19 11:26:37;;;;;;;17.30;13.37;;;2.30;99.90;;;;;;5045411;28;20037;-79
2022/11/19 11:29:11;;;;;;;13.25;10.43;;;2.30;99.90;;;;;;5039575;28;20048;-81
2022/11/19 11:31:39;;;;;;;15.10;11.70;;;2.30;99.90;;;;;;5026533;28;20049;-83
2022/11/19 11:34:25;;;;;;;15.93;11.20;;;2.30;99.90;;;;;;5045639;28;20519;-86
2022/11/19 11:36:53;;;;;;;16.35;12.30;;;2.30;99.90;;;;;;5011344;28;20392;-82
2022/11/19 11:39:26;;;;;;;15.27;11.63;;;2.40;99.90;;;;;;5038124;28;20029;-75
2022/11/19 11:41:54;;;;;;;14.25;11.45;;;2.30;99.90;;;;;;5027246;28;20032;-84
2022/11/19 11:44:23;;;;;;;13.93;10.83;;;2.30;99.90;;;;;;5045201;28;20044;-80
2022/11/19 11:46:51;;;;;;;13.07;10.40;;;2.30;99.90;;;;;;5044150;28;20910;-81
2022/11/19 11:49:38;;;;;;;13.17;9.50;;;2.40;99.90;;;;;;5036514;28;20041;-77
2022/11/19 11:52:10;;;;;;;15.27;11.20;;;2.40;99.90;;;;;;5041844;28;20029;-85
2022/11/19 11:54:57;;;;;;;13.60;11.02;;;2.40;99.90;;;;;;5042019;28;20052;-83
2022/11/19 11:57:29;;;;;;;13.37;10.50;;;2.30;99.90;;;;;;5042936;28;20041;-77
2022/11/19 11:59:56;;;;;;;13.35;11.02;;;2.40;99.90;;;;;;5022091;28;20036;-83
2022/11/19 12:02:31;;;;;;;12.43;10.63;;;2.40;99.90;;;;;;5040367;28;20036;-76
2022/11/19 12:05:15;;;;;;;14.33;10.77;;;2.50;99.90;;;;;;5047486;28;20020;-83
2022/11/19 12:08:06;;;;;;;13.03;10.47;;;2.50;99.90;;;;;;5029297;28;20037;-85
2022/11/19 12:11:10;;;;;;;12.53;9.93;;;2.60;99.90;;;;;;5039518;28;20029;-83
2022/11/19 12:13:56;;;;;;;9.95;8.10;;;2.60;99.90;;;;;;5043150;28;20048;-83
2022/11/19 12:16:37;;;;;;;13.10;10.27;;;2.60;99.90;;;;;;5038605;28;20028;-84
2022/11/19 12:19:40;;;;;;;13.70;10.57;;;2.60;99.90;;;;;;5033533;28;20036;-81
2022/11/19 12:22:22;;;;;;;11.32;8.90;;;2.60;99.90;;;;;;5024233;28;20030;-84
2022/11/19 12:25:17;;;;;;;11.00;8.93;;;2.60;99.90;;;;;;5009672;28;20056;-83
2022/11/19 12:28:04;;;;;;;10.73;9.37;;;2.60;99.90;;;;;;5017241;28;20040;-83
2022/11/19 12:31:12;;;;;;;9.03;7.53;;;2.60;99.90;;;;;;5021319;28;20052;-82
2022/11/19 12:34:00;;;;;;;7.60;6.43;;;2.60;99.90;;;;;;5032865;28;20053;-79
2022/11/19 12:36:45;;;;;;;10.93;8.27;;;2.70;99.90;;;;;;5039985;28;20028;-82
2022/11/19 12:39:27;;;;;;;10.43;8.27;;;2.70;99.90;;;;;;5035107;28;20048;-77
2022/11/19 12:42:06;;;;;;;9.55;7.30;;;2.80;99.90;;;;;;5041548;28;20045;-81
2022/11/19 12:45:01;;;;;;;9.77;7.17;;;2.80;99.90;;;;;;5024857;28;20033;-82
2022/11/19 12:47:49;;;;;;;10.20;7.57;;;2.80;99.90;;;;;;5039926;28;20524;-83
2022/11/19 12:50:29;;;;;;;11.80;8.35;;;2.80;99.90;;;;;;5034997;28;20393;-80
2022/11/19 12:52:56;;;;;;;10.90;7.85;;;2.90;99.90;;;;;;5042037;28;20041;-80
2022/11/19 12:55:47;;;;;;;10.65;7.30;;;2.90;99.90;;;;;;5039905;28;20036;-80
2022/11/19 12:58:45;;;;;;;9.40;6.93;;;2.90;99.90;;;;;;5040168;28;20519;-81
2022/11/19 13:01:19;;;;;;;10.30;6.87;;;3.00;99.90;;;;;;5017380;28;20415;-79
2022/11/19 13:04:23;;;;;;;9.20;7.17;;;3.00;99.90;;;;;;5038760;28;20045;-78
2022/11/19 13:07:07;;;;;;;12.48;8.30;;;2.90;99.90;;;;;;5025195;28;20049;-78
2022/11/19 13:09:59;;;;;;;8.03;6.67;;;3.00;99.90;;;;;;5020172;28;20033;-81
2022/11/19 13:12:40;;;;;;;9.60;6.50;;;3.00;99.90;;;;;;5045581;28;20060;-80
2022/11/19 13:15:21;;;;;;;8.15;5.90;;;3.00;99.90;;;;;;5026269;28;20051;-80
2022/11/19 13:17:51;;;;;;;9.33;6.60;;;3.00;99.90;;;;;;5043789;28;20536;-77
2022/11/19 13:20:39;;;;;;;7.55;6.13;;;3.00;99.90;;;;;;5022696;28;20471;-80
2022/11/19 13:23:08;;;;;;;8.82;5.82;;;3.00;99.90;;;;;;5041200;28;20029;-79